createdAt,value
2018-04-02T00:00:49.732Z,73.90
2018-04-02T00:03:18.046Z,74.13
2018-04-02T00:05:46.398Z,74.09
2018-04-02T00:08:15.488Z,74.19
2018-04-02T00:10:44.615Z,74.10
2018-04-02T00:13:12.965Z,74.04
2018-04-02T00:15:42.106Z,73.88
2018-04-02T00:18:10.457Z,73.78
2018-04-02T00:20:38.752Z,73.71
2018-04-02T00:23:07.076Z,73.43
2018-04-02T00:25:35.433Z,73.47
2018-04-02T00:28:03.776Z,73.32
2018-04-02T00:30:32.083Z,72.96
2018-04-02T00:33:00.442Z,72.81
2018-04-02T00:35:29.556Z,72.62
2018-04-02T00:37:57.884Z,72.40
2018-04-02T00:40:26.980Z,72.35
2018-04-02T00:42:55.351Z,72.12
2018-04-02T00:45:24.418Z,71.55
2018-04-02T00:47:52.741Z,71.64
2018-04-02T00:50:21.107Z,71.21
2018-04-02T00:52:49.424Z,71.35
2018-04-02T00:55:17.826Z,71.29
2018-04-02T00:57:46.094Z,71.31
2018-04-02T01:00:14.446Z,71.33
2018-04-02T01:02:42.768Z,71.20
2018-04-02T01:05:11.067Z,71.27
2018-04-02T01:07:40.168Z,71.80
2018-04-02T01:10:08.478Z,72.17
2018-04-02T01:12:36.834Z,72.22
2018-04-02T01:15:05.145Z,72.14
2018-04-02T01:17:33.517Z,72.64
2018-04-02T01:20:01.833Z,72.74
2018-04-02T01:22:30.208Z,72.85
2018-04-02T01:24:59.281Z,72.81
2018-04-02T01:27:27.624Z,72.85
2018-04-02T01:29:55.937Z,73.09
2018-04-02T01:32:24.293Z,72.92
2018-04-02T01:34:52.646Z,73.05
2018-04-02T01:37:20.971Z,73.29
2018-04-02T01:39:49.329Z,73.37
2018-04-02T01:42:17.655Z,73.31
2018-04-02T01:44:46.802Z,73.30
2018-04-02T01:47:15.151Z,73.42
2018-04-02T01:49:43.469Z,73.37
2018-04-02T01:52:11.787Z,73.38
2018-04-02T01:54:40.903Z,73.24
2018-04-02T01:57:09.255Z,72.85
2018-04-02T01:59:38.380Z,72.64
2018-04-02T02:02:07.520Z,72.69
2018-04-02T02:04:35.858Z,72.81
2018-04-02T02:07:04.203Z,72.64
2018-04-02T02:09:33.301Z,73.02
2018-04-02T02:12:02.421Z,73.33
2018-04-02T02:14:30.753Z,72.86
2018-04-02T02:16:59.114Z,72.73
2018-04-02T02:19:27.475Z,72.36
2018-04-02T02:21:55.789Z,71.88
2018-04-02T02:24:24.917Z,71.77
2018-04-02T02:26:53.570Z,71.67
2018-04-02T02:29:21.949Z,71.95
2018-04-02T02:31:51.102Z,71.61
2018-04-02T02:34:20.167Z,71.83
2018-04-02T02:36:48.524Z,72.15
2018-04-02T02:39:17.614Z,72.04
2018-04-02T02:41:46.739Z,71.64
2018-04-02T02:44:15.083Z,71.31
2018-04-02T02:46:43.426Z,71.34
2018-04-02T02:49:11.733Z,71.22
2018-04-02T02:51:40.069Z,71.28
2018-04-02T02:54:08.417Z,71.33
2018-04-02T02:56:36.763Z,70.60
2018-04-02T02:59:05.072Z,70.63
2018-04-02T03:01:33.432Z,71.45
2018-04-02T03:04:02.545Z,70.86
2018-04-02T03:06:31.306Z,71.48
2018-04-02T03:08:59.619Z,71.74
2018-04-02T03:11:27.997Z,72.04
2018-04-02T03:13:56.358Z,71.68
2018-04-02T03:16:25.458Z,71.91
2018-04-02T03:18:53.804Z,71.96
2018-04-02T03:21:22.153Z,71.77
2018-04-02T03:23:50.470Z,72.16
2018-04-02T03:26:18.817Z,72.65
2018-04-02T03:28:47.150Z,72.83
2018-04-02T03:31:15.497Z,73.19
2018-04-02T03:33:43.811Z,73.53
2018-04-02T03:36:12.156Z,73.48
2018-04-02T03:38:40.475Z,73.22
2018-04-02T03:41:08.849Z,73.51
2018-04-02T03:43:37.151Z,74.25
2018-04-02T03:46:05.490Z,74.62
2018-04-02T03:48:33.806Z,74.91
2018-04-02T03:51:02.147Z,75.31
2018-04-02T03:53:30.466Z,75.30
2018-04-02T03:55:58.825Z,75.72
2018-04-02T03:58:27.542Z,75.77
2018-04-02T04:00:56.294Z,76.18
2018-04-02T04:03:25.417Z,76.02
2018-04-02T04:05:53.739Z,76.43
2018-04-02T04:08:22.102Z,76.70
2018-04-02T04:10:51.176Z,76.93
2018-04-02T04:13:19.533Z,77.27
2018-04-02T04:15:47.854Z,78.18
2018-04-02T04:18:17.001Z,78.35
2018-04-02T04:20:45.325Z,78.86
2018-04-02T04:23:14.402Z,79.25
2018-04-02T04:25:42.837Z,79.58
2018-04-02T04:28:11.154Z,79.55
2018-04-02T04:30:39.491Z,79.53
2018-04-02T04:33:07.821Z,79.73
2018-04-02T04:35:36.899Z,79.74
2018-04-02T04:38:05.245Z,80.00
2018-04-02T04:40:33.592Z,80.12
2018-04-02T04:43:01.958Z,80.36
2018-04-02T04:45:31.053Z,80.30
2018-04-02T04:48:00.185Z,80.04
2018-04-02T04:50:28.532Z,79.37
2018-04-02T04:52:56.860Z,78.96
2018-04-02T04:55:25.598Z,78.17
2018-04-02T04:57:54.722Z,77.72
2018-04-02T05:00:23.036Z,77.48
2018-04-02T05:02:51.358Z,77.47
2018-04-02T05:05:19.705Z,77.92
2018-04-02T05:07:48.024Z,77.96
2018-04-02T05:10:16.381Z,78.09
2018-04-02T05:12:44.715Z,77.84
2018-04-02T05:15:13.065Z,77.78
2018-04-02T05:17:41.416Z,77.75
2018-04-02T05:20:09.772Z,77.67
2018-04-02T05:22:38.120Z,77.62
2018-04-02T05:25:06.431Z,77.53
2018-04-02T05:27:35.553Z,77.57
2018-04-02T05:30:03.880Z,77.36
2018-04-02T05:32:32.239Z,77.11
2018-04-02T05:35:00.552Z,76.90
2018-04-02T05:37:28.866Z,76.83
2018-04-02T05:39:57.209Z,76.59
2018-04-02T05:42:26.309Z,76.45
2018-04-02T05:44:55.469Z,76.18
2018-04-02T05:47:23.796Z,75.48
2018-04-02T05:49:52.113Z,74.89
2018-04-02T05:52:20.468Z,74.70
2018-04-02T05:54:48.812Z,74.59
2018-04-02T05:57:17.172Z,74.01
2018-04-02T05:59:45.558Z,73.78
2018-04-02T06:02:13.903Z,73.44
2018-04-02T06:04:42.244Z,73.41
2018-04-02T06:07:10.593Z,73.17
2018-04-02T06:09:38.933Z,72.88
2018-04-02T06:12:07.308Z,72.74
2018-04-02T06:14:35.641Z,72.63
2018-04-02T06:17:04.753Z,71.23
2018-04-02T06:19:33.091Z,71.14
2018-04-02T06:22:01.853Z,71.35
2018-04-02T06:24:30.214Z,70.50
2018-04-02T06:26:58.561Z,69.92
2018-04-02T06:29:27.657Z,70.25
2018-04-02T06:31:56.015Z,70.42
2018-04-02T06:34:24.367Z,70.66
2018-04-02T06:36:52.707Z,69.85
2018-04-02T06:39:21.063Z,69.59
2018-04-02T06:41:50.207Z,69.49
2018-04-02T06:44:18.587Z,69.59
2018-04-02T06:46:46.960Z,69.46
2018-04-02T06:49:15.284Z,69.22
2018-04-02T06:51:44.425Z,69.43
2018-04-02T06:54:12.744Z,69.05
2018-04-02T06:56:41.209Z,68.84
2018-04-02T06:59:09.536Z,68.15
2018-04-02T07:01:37.896Z,68.15
2018-04-02T07:04:07.014Z,67.96
2018-04-02T07:06:35.375Z,67.96
2018-04-02T07:09:07.083Z,69.16
2018-04-02T07:11:35.408Z,68.41
2018-04-02T07:14:04.568Z,67.39
2018-04-02T07:16:32.948Z,67.46
2018-04-02T07:19:01.310Z,66.96
2018-04-02T07:21:29.629Z,67.94
2018-04-02T07:23:58.764Z,68.01
2018-04-02T07:26:27.081Z,66.68
2018-04-02T07:28:55.430Z,67.42
2018-04-02T07:31:23.770Z,66.83
2018-04-02T07:33:52.137Z,65.44
2018-04-02T07:36:21.225Z,65.90
2018-04-02T07:38:49.580Z,66.04
2018-04-02T07:41:19.381Z,65.58
2018-04-02T07:43:47.698Z,65.41
2018-04-02T07:46:16.802Z,65.29
2018-04-02T07:48:45.895Z,63.69
2018-04-02T07:51:15.024Z,63.47
2018-04-02T07:53:43.360Z,63.78
2018-04-02T07:56:12.500Z,62.24
2018-04-02T07:58:40.852Z,61.84
2018-04-02T08:01:09.162Z,61.85
2018-04-02T08:03:37.529Z,60.50
2018-04-02T08:06:05.845Z,61.55
2018-04-02T08:08:34.233Z,58.19
2018-04-02T08:11:02.544Z,58.42
2018-04-02T08:13:30.864Z,58.72
2018-04-02T08:15:59.227Z,58.79
2018-04-02T08:18:27.564Z,57.86
2018-04-02T08:20:56.695Z,57.54
2018-04-02T08:23:25.064Z,57.56
2018-04-02T08:25:53.370Z,54.97
2018-04-02T08:28:21.819Z,53.30
2018-04-02T08:30:50.074Z,52.43
2018-04-02T08:33:18.395Z,52.42
2018-04-02T08:35:46.745Z,52.65
2018-04-02T08:38:16.939Z,53.05
2018-04-02T08:40:46.974Z,53.28
2018-04-02T08:43:15.345Z,52.68
2018-04-02T08:45:44.423Z,51.77
2018-04-02T08:48:14.114Z,48.30
2018-04-02T08:50:42.460Z,45.59
2018-04-02T08:53:10.839Z,45.19
2018-04-02T08:55:39.180Z,43.53
2018-04-02T08:58:07.577Z,42.27
2018-04-02T09:00:35.929Z,41.59
2018-04-02T09:03:04.285Z,39.60
2018-04-02T09:05:32.658Z,37.98
2018-04-02T09:08:01.005Z,35.78
2018-04-02T09:10:29.423Z,35.29
2018-04-02T09:12:57.805Z,36.15
2018-04-02T09:15:26.951Z,35.46
2018-04-02T09:17:55.303Z,35.18
2018-04-02T09:20:23.788Z,34.77
2018-04-02T09:22:53.483Z,34.42
2018-04-02T09:25:23.819Z,35.35
2018-04-02T09:27:52.369Z,33.83
2018-04-02T09:30:21.657Z,33.39
2018-04-02T09:32:52.071Z,31.95
2018-04-02T09:35:21.284Z,31.66
2018-04-02T09:37:49.796Z,32.12
2018-04-02T09:40:19.430Z,32.30
2018-04-02T09:42:47.898Z,32.58
2018-04-02T09:45:16.633Z,32.11
2018-04-02T09:47:45.019Z,30.84
2018-04-02T09:50:13.382Z,32.07
2018-04-02T09:52:41.733Z,31.47
2018-04-02T09:55:10.260Z,31.75
2018-04-02T09:57:38.595Z,32.45
2018-04-02T10:00:08.203Z,33.46
2018-04-02T10:02:36.548Z,33.96
2018-04-02T10:05:06.619Z,33.59
2018-04-02T10:07:35.250Z,34.79
2018-04-02T10:10:03.708Z,33.80
2018-04-02T10:12:32.043Z,33.55
2018-04-02T10:15:00.595Z,33.08
2018-04-02T10:17:29.000Z,33.21
2018-04-02T10:20:18.457Z,33.25
2018-04-02T10:22:46.983Z,34.29
2018-04-02T10:25:15.334Z,34.44
2018-04-02T10:27:43.747Z,34.99
2018-04-02T10:30:12.089Z,34.44
2018-04-02T10:32:40.552Z,34.53
2018-04-02T10:35:11.250Z,35.35
2018-04-02T10:37:41.229Z,36.01
2018-04-02T10:40:09.807Z,35.97
2018-04-02T10:42:38.212Z,36.25
2018-04-02T10:45:06.749Z,37.89
2018-04-02T10:47:35.684Z,38.94
2018-04-02T10:50:04.270Z,39.79
2018-04-02T10:52:32.971Z,40.68
2018-04-02T10:55:04.127Z,39.65
2018-04-02T10:57:32.646Z,39.65
2018-04-02T11:00:01.105Z,39.97
2018-04-02T11:02:29.474Z,41.83
2018-04-02T11:04:57.839Z,42.60
2018-04-02T11:07:27.002Z,40.27
2018-04-02T11:09:55.406Z,40.05
2018-04-02T11:12:24.537Z,39.52
2018-04-02T11:14:52.888Z,38.29
2018-04-02T11:17:22.506Z,39.23
2018-04-02T11:19:52.042Z,39.23
2018-04-02T11:22:20.568Z,39.19
2018-04-02T11:24:49.172Z,39.11
2018-04-02T11:27:17.692Z,39.08
2018-04-02T11:29:46.190Z,41.29
2018-04-02T11:32:14.594Z,42.56
2018-04-02T11:34:43.877Z,43.85
2018-04-02T11:37:14.748Z,44.80
2018-04-02T11:39:43.754Z,45.58
2018-04-02T11:42:12.327Z,45.46
2018-04-02T11:44:41.768Z,45.76
2018-04-02T11:47:15.790Z,45.52
2018-04-02T11:49:46.528Z,46.52
2018-04-02T11:52:17.665Z,46.64
2018-04-02T11:54:55.587Z,45.40
2018-04-02T11:57:24.314Z,46.44
2018-04-02T12:00:11.428Z,46.41
2018-04-02T12:02:39.830Z,47.59
2018-04-02T12:05:08.203Z,48.02
2018-04-02T12:07:37.921Z,47.74
2018-04-02T12:10:06.332Z,48.15
2018-04-02T12:12:36.024Z,48.29
2018-04-02T12:15:04.402Z,48.41
2018-04-02T12:17:34.010Z,47.79
2018-04-02T12:20:08.010Z,47.88
2018-04-02T12:22:36.879Z,49.38
2018-04-02T12:25:06.049Z,48.16
2018-04-02T12:27:34.536Z,48.36
2018-04-02T12:30:04.182Z,48.54
2018-04-02T12:32:32.554Z,48.74
2018-04-02T12:35:00.908Z,48.28
2018-04-02T12:37:29.259Z,48.95
2018-04-02T12:39:57.630Z,48.08
2018-04-02T12:42:26.780Z,46.52
2018-04-02T12:44:55.534Z,44.99
2018-04-02T12:47:24.350Z,43.89
2018-04-02T12:49:52.722Z,43.28
2018-04-02T12:52:21.265Z,44.03
2018-04-02T12:54:51.005Z,44.23
2018-04-02T12:57:20.687Z,44.18
2018-04-02T12:59:49.433Z,44.03
2018-04-02T13:02:17.805Z,43.92
2018-04-02T13:04:46.172Z,42.52
2018-04-02T13:07:14.921Z,40.85
2018-04-02T13:09:46.067Z,39.54
2018-04-02T13:12:15.658Z,39.52
2018-04-02T13:14:44.865Z,39.74
2018-04-02T13:17:14.090Z,39.74
2018-04-02T13:19:46.577Z,39.12
2018-04-02T13:22:15.068Z,39.94
2018-04-02T13:24:43.879Z,40.36
2018-04-02T13:27:13.302Z,40.49
2018-04-02T13:29:42.753Z,39.51
2018-04-02T13:32:11.379Z,38.95
2018-04-02T13:34:39.921Z,39.10
2018-04-02T13:37:08.367Z,40.78
2018-04-02T13:39:36.801Z,41.08
2018-04-02T13:42:05.936Z,41.33
2018-04-02T13:44:34.258Z,40.85
2018-04-02T13:47:03.337Z,38.95
2018-04-02T13:49:32.089Z,39.49
2018-04-02T13:52:00.509Z,40.14
2018-04-02T13:54:28.851Z,40.73
2018-04-02T13:56:58.185Z,41.36
2018-04-02T13:59:27.597Z,41.87
2018-04-02T14:01:55.969Z,41.74
2018-04-02T14:04:24.309Z,41.63
2018-04-02T14:06:53.525Z,41.78
2018-04-02T14:09:22.661Z,42.41
2018-04-02T14:11:52.073Z,42.85
2018-04-02T14:14:21.160Z,42.48
2018-04-02T14:16:49.557Z,41.56
2018-04-02T14:19:18.124Z,42.64
2018-04-02T14:21:46.509Z,41.70
2018-04-02T14:24:14.851Z,42.41
2018-04-02T14:26:43.205Z,41.68
2018-04-02T14:29:12.705Z,43.15
2018-04-02T14:31:42.214Z,43.22
2018-04-02T14:34:11.380Z,43.18
2018-04-02T14:36:39.743Z,42.61
2018-04-02T14:39:08.124Z,42.47
2018-04-02T14:41:36.604Z,42.58
2018-04-02T14:44:04.951Z,42.56
2018-04-02T14:46:33.328Z,41.86
2018-04-02T14:49:01.676Z,41.44
2018-04-02T14:51:30.148Z,41.72
2018-04-02T14:53:58.500Z,41.63
2018-04-02T14:56:27.332Z,41.21
2018-04-02T14:58:56.966Z,41.55
2018-04-02T15:01:25.796Z,41.45
2018-04-02T15:03:54.860Z,40.95
2018-04-02T15:06:23.225Z,41.15
2018-04-02T15:08:52.401Z,41.42
2018-04-02T15:11:22.596Z,40.90
2018-04-02T15:13:52.136Z,41.06
2018-04-02T15:16:20.573Z,41.51
2018-04-02T15:18:48.984Z,40.85
2018-04-02T15:21:17.374Z,40.55
2018-04-02T15:23:45.782Z,41.19
2018-04-02T15:26:14.304Z,41.29
2018-04-02T15:28:44.524Z,40.99
2018-04-02T15:31:31.294Z,41.01
2018-04-02T15:33:59.760Z,40.65
2018-04-02T15:36:28.164Z,41.49
2018-04-02T15:38:56.483Z,42.15
2018-04-02T15:41:25.632Z,42.15
2018-04-02T15:43:54.048Z,41.39
2018-04-02T15:46:22.420Z,41.26
2018-04-02T15:48:51.660Z,41.92
2018-04-02T15:51:20.086Z,42.21
2018-04-02T15:53:48.441Z,41.88
2018-04-02T15:56:17.916Z,42.25
2018-04-02T15:58:50.102Z,42.45
2018-04-02T16:01:19.263Z,42.64
2018-04-02T16:03:50.207Z,42.75
2018-04-02T16:06:20.172Z,42.94
2018-04-02T16:08:48.590Z,42.80
2018-04-02T16:11:16.998Z,43.09
2018-04-02T16:13:45.367Z,43.53
2018-04-02T16:16:13.725Z,43.38
2018-04-02T16:18:42.831Z,44.24
2018-04-02T16:21:11.992Z,44.12
2018-04-02T16:23:40.404Z,44.47
2018-04-02T16:26:09.506Z,44.42
2018-04-02T16:28:40.645Z,44.35
2018-04-02T16:31:09.942Z,44.35
2018-04-02T16:33:38.325Z,43.71
2018-04-02T16:36:06.760Z,43.08
2018-04-02T16:38:35.117Z,42.94
2018-04-02T16:41:03.482Z,43.03
2018-04-02T16:43:32.880Z,43.66
2018-04-02T16:46:02.136Z,44.24
2018-04-02T16:48:30.519Z,44.18
2018-04-02T16:50:59.660Z,44.88
2018-04-02T16:53:28.465Z,45.54
2018-04-02T16:55:56.787Z,45.96
2018-04-02T16:58:25.960Z,46.33
2018-04-02T17:00:54.308Z,46.56
2018-04-02T17:03:22.634Z,46.63
2018-04-02T17:05:51.783Z,46.82
2018-04-02T17:08:20.352Z,47.65
2018-04-02T17:10:48.717Z,47.78
2018-04-02T17:13:17.055Z,48.20
2018-04-02T17:15:45.410Z,48.66
2018-04-02T17:18:13.789Z,48.77
2018-04-02T17:20:42.513Z,48.92
2018-04-02T17:23:11.652Z,49.17
2018-04-02T17:25:39.989Z,49.52
2018-04-02T17:28:09.163Z,50.76
2018-04-02T17:30:37.892Z,51.18
2018-04-02T17:33:06.467Z,51.31
2018-04-02T17:35:35.584Z,51.76
2018-04-02T17:38:04.684Z,51.93
2018-04-02T17:40:33.019Z,52.15
2018-04-02T17:43:02.182Z,52.47
2018-04-02T17:45:30.535Z,52.85
2018-04-02T17:47:58.852Z,53.15
2018-04-02T17:50:27.215Z,53.28
2018-04-02T17:52:55.574Z,53.29
2018-04-02T17:55:23.902Z,53.36
2018-04-02T17:57:53.033Z,53.33
2018-04-02T18:00:21.463Z,53.71
2018-04-02T18:02:49.811Z,53.58
2018-04-02T18:05:18.220Z,53.77
2018-04-02T18:07:46.942Z,53.93
2018-04-02T18:10:15.318Z,53.29
2018-04-02T18:12:44.419Z,53.34
2018-04-02T18:15:12.769Z,53.13
2018-04-02T18:17:41.127Z,53.21
2018-04-02T18:20:09.446Z,53.12
2018-04-02T18:22:38.595Z,53.84
2018-04-02T18:25:06.929Z,54.00
2018-04-02T18:27:35.291Z,54.14
2018-04-02T18:30:04.658Z,54.55
2018-04-02T18:32:33.030Z,54.13
2018-04-02T18:35:01.353Z,54.11
2018-04-02T18:37:29.739Z,54.07
2018-04-02T18:39:58.124Z,53.93
2018-04-02T18:42:27.281Z,54.01
2018-04-02T18:44:55.871Z,53.61
2018-04-02T18:47:24.981Z,53.68
2018-04-02T18:49:53.315Z,53.80
2018-04-02T18:52:22.354Z,53.51
2018-04-02T18:54:52.223Z,53.58
2018-04-02T18:57:20.543Z,54.11
2018-04-02T18:59:49.631Z,54.46
2018-04-02T19:02:18.787Z,54.33
2018-04-02T19:04:47.155Z,54.79
2018-04-02T19:07:16.138Z,55.08
2018-04-02T19:09:44.489Z,55.29
2018-04-02T19:12:12.810Z,54.93
2018-04-02T19:14:41.194Z,55.13
2018-04-02T19:17:09.552Z,55.24
2018-04-02T19:19:37.883Z,55.47
2018-04-02T19:22:06.234Z,55.52
2018-04-02T19:24:34.628Z,55.43
2018-04-02T19:27:02.954Z,55.41
2018-04-02T19:29:31.297Z,55.44
2018-04-02T19:32:00.441Z,55.30
2018-04-02T19:34:29.291Z,55.65
2018-04-02T19:36:57.675Z,55.67
2018-04-02T19:39:26.031Z,55.89
2018-04-02T19:41:55.524Z,56.02
2018-04-02T19:44:25.553Z,56.28
2018-04-02T19:46:55.300Z,56.17
2018-04-02T19:49:24.394Z,56.45
2018-04-02T19:51:52.741Z,56.76
2018-04-02T19:54:21.870Z,57.09
2018-04-02T19:56:50.183Z,57.22
2018-04-02T19:59:18.554Z,57.71
2018-04-02T20:01:46.891Z,58.08
2018-04-02T20:04:15.251Z,58.13
2018-04-02T20:06:44.399Z,58.42
2018-04-02T20:09:12.765Z,58.16
2018-04-02T20:11:41.090Z,58.44
2018-04-02T20:14:10.191Z,58.49
2018-04-02T20:16:39.290Z,58.86
2018-04-02T20:19:08.424Z,59.08
2018-04-02T20:21:37.504Z,59.30
2018-04-02T20:24:05.812Z,59.74
2018-04-02T20:26:34.198Z,60.33
2018-04-02T20:29:02.520Z,60.70
2018-04-02T20:31:30.884Z,61.06
2018-04-02T20:33:59.980Z,61.05
2018-04-02T20:36:28.388Z,61.22
2018-04-02T20:38:57.054Z,61.33
2018-04-02T20:41:25.396Z,61.79
2018-04-02T20:43:53.761Z,61.91
2018-04-02T20:46:22.107Z,61.80
2018-04-02T20:48:50.458Z,61.86
2018-04-02T20:51:19.573Z,61.69
2018-04-02T20:53:47.948Z,61.80
2018-04-02T20:56:16.256Z,62.02
2018-04-02T20:58:44.582Z,62.19
2018-04-02T21:01:13.698Z,62.47
2018-04-02T21:03:42.066Z,62.49
2018-04-02T21:06:11.158Z,62.68
2018-04-02T21:08:39.483Z,62.63
2018-04-02T21:11:07.846Z,62.90
2018-04-02T21:13:36.564Z,63.34
2018-04-02T21:16:04.920Z,63.49
2018-04-02T21:18:33.229Z,63.51
2018-04-02T21:21:01.559Z,63.41
2018-04-02T21:23:30.688Z,63.91
2018-04-02T21:25:59.034Z,63.74
2018-04-02T21:28:27.434Z,63.85
2018-04-02T21:30:55.785Z,63.96
2018-04-02T21:33:24.109Z,63.78
2018-04-02T21:35:52.428Z,63.45
2018-04-02T21:38:21.555Z,63.30
2018-04-02T21:40:49.885Z,63.26
2018-04-02T21:43:18.967Z,63.21
2018-04-02T21:45:48.093Z,62.95
2018-04-02T21:48:16.429Z,62.70
2018-04-02T21:50:44.790Z,62.37
2018-04-02T21:53:13.897Z,62.25
2018-04-02T21:55:42.232Z,62.18
2018-04-02T21:58:10.567Z,62.33
2018-04-02T22:00:39.703Z,62.35
2018-04-02T22:03:08.026Z,62.59
2018-04-02T22:05:36.400Z,62.92
2018-04-02T22:08:10.528Z,63.03
2018-04-02T22:10:38.885Z,63.05
2018-04-02T22:13:07.241Z,63.37
2018-04-02T22:15:35.566Z,63.26
2018-04-02T22:18:05.018Z,63.15
2018-04-02T22:20:33.365Z,63.44
2018-04-02T22:23:02.574Z,63.49
2018-04-02T22:25:30.886Z,63.67
2018-04-02T22:27:59.195Z,63.86
2018-04-02T22:30:27.549Z,63.76
2018-04-02T22:32:55.889Z,63.64
2018-04-02T22:35:24.253Z,63.52
2018-04-02T22:37:52.604Z,63.52
2018-04-02T22:40:20.933Z,63.63
2018-04-02T22:42:49.943Z,63.25
2018-04-02T22:45:18.266Z,63.10
2018-04-02T22:47:47.382Z,62.92
2018-04-02T22:50:15.714Z,62.83
2018-04-02T22:52:44.056Z,62.82
2018-04-02T22:55:12.366Z,62.91
2018-04-02T22:57:40.721Z,62.93
2018-04-02T23:00:09.032Z,62.90
2018-04-02T23:02:37.378Z,62.82
2018-04-02T23:05:05.760Z,62.69
2018-04-02T23:07:34.082Z,62.71
2018-04-02T23:10:03.185Z,62.76
2018-04-02T23:12:31.527Z,62.69
2018-04-02T23:14:59.892Z,62.80
2018-04-02T23:17:28.260Z,62.78
2018-04-02T23:19:56.580Z,62.77
2018-04-02T23:22:43.346Z,62.84
2018-04-02T23:25:11.666Z,62.86
2018-04-02T23:27:40.785Z,63.08
2018-04-02T23:30:09.140Z,63.30
2018-04-02T23:32:38.224Z,63.56
2018-04-02T23:35:06.592Z,63.66
2018-04-02T23:37:34.908Z,63.70
2018-04-02T23:40:03.260Z,63.60
2018-04-02T23:42:32.389Z,63.38
2018-04-02T23:45:00.716Z,63.17
2018-04-02T23:47:29.036Z,62.89
2018-04-02T23:49:57.370Z,62.61
2018-04-02T23:52:25.666Z,62.29
2018-04-02T23:54:54.784Z,61.97
2018-04-02T23:57:23.099Z,61.81
2018-04-02T23:59:51.450Z,61.50
